createdAt,value
2023-02-02T00:03:36.688Z,98333.06
2023-02-02T00:08:38.678Z,98330.50
2023-02-02T00:13:40.602Z,98343.38
2023-02-02T00:18:42.527Z,98327.88
2023-02-02T00:23:44.449Z,98326.16
2023-02-02T00:28:46.298Z,98323.63
2023-02-02T00:33:48.913Z,98325.47
2023-02-02T00:38:50.671Z,98329.88
2023-02-02T00:43:52.479Z,98335.06
2023-02-02T00:48:54.318Z,98336.03
2023-02-02T00:53:56.235Z,98321.47
2023-02-02T00:58:58.140Z,98326.66
2023-02-02T01:03:59.979Z,98332.72
2023-02-02T01:09:02.017Z,98317.31
2023-02-02T01:14:03.992Z,98333.75
2023-02-02T01:19:05.909Z,98316.56
2023-02-02T01:24:08.162Z,98318.38
2023-02-02T01:29:10.045Z,98317.50
2023-02-02T01:34:11.960Z,98315.84
2023-02-02T01:39:13.883Z,98318.44
2023-02-02T01:45:10.043Z,98318.47
2023-02-02T01:50:12.431Z,98315.00
2023-02-02T01:55:15.785Z,98307.22
2023-02-02T02:00:18.011Z,98313.19
2023-02-02T02:05:24.902Z,98318.25
2023-02-02T02:10:26.974Z,98318.22
2023-02-02T02:15:29.375Z,98325.94
2023-02-02T02:20:55.751Z,98313.84
2023-02-02T02:25:57.710Z,98312.97
2023-02-02T02:31:24.521Z,98311.25
2023-02-02T02:36:32.477Z,98320.69
2023-02-02T02:41:36.540Z,98319.75
2023-02-02T02:46:38.551Z,98324.94
2023-02-02T02:51:45.807Z,98327.53
2023-02-02T02:57:08.962Z,98326.75
2023-02-02T03:02:35.039Z,98325.03
2023-02-02T03:07:42.663Z,98327.53
2023-02-02T03:12:48.007Z,98331.72
2023-02-02T03:17:50.930Z,98331.00
2023-02-02T03:22:52.860Z,98331.91
2023-02-02T03:27:54.673Z,98342.22
2023-02-02T03:32:56.511Z,98345.72
2023-02-02T03:37:58.473Z,98352.53
2023-02-02T03:43:00.323Z,98347.31
2023-02-02T03:48:04.271Z,98349.09
2023-02-02T03:53:06.280Z,98356.09
2023-02-02T03:58:08.206Z,98356.16
2023-02-02T04:03:10.088Z,98352.69
2023-02-02T04:08:13.206Z,98357.03
2023-02-02T04:13:15.126Z,98350.00
2023-02-02T04:18:17.023Z,98348.19
2023-02-02T04:23:19.041Z,98350.88
2023-02-02T04:28:21.891Z,98362.97
2023-02-02T04:33:24.453Z,98348.41
2023-02-02T04:38:26.422Z,98359.59
2023-02-02T04:43:28.318Z,98355.28
2023-02-02T04:48:30.485Z,98362.16
2023-02-02T04:53:32.375Z,98369.03
2023-02-02T04:58:34.101Z,98370.75
2023-02-02T05:03:35.820Z,98378.56
2023-02-02T05:08:37.768Z,98371.69
2023-02-02T05:13:39.612Z,98387.22
2023-02-02T05:18:42.503Z,98370.00
2023-02-02T05:23:44.276Z,98376.88
2023-02-02T05:28:46.008Z,98372.50
2023-02-02T05:33:47.766Z,98371.56
2023-02-02T05:38:49.529Z,98368.00
2023-02-02T05:43:51.286Z,98380.13
2023-02-02T05:48:53.149Z,98382.69
2023-02-02T05:53:54.936Z,98379.25
2023-02-02T05:58:56.653Z,98381.84
2023-02-02T06:03:58.396Z,98385.41
2023-02-02T06:09:00.179Z,98395.72
2023-02-02T06:14:01.924Z,98388.78
2023-02-02T06:19:03.867Z,98408.56
2023-02-02T06:24:05.966Z,98399.94
2023-02-02T06:29:07.732Z,98405.09
2023-02-02T06:34:09.937Z,98394.78
2023-02-02T06:39:11.688Z,98400.78
2023-02-02T06:44:14.391Z,98403.28
2023-02-02T06:49:15.943Z,98408.47
2023-02-02T06:54:17.688Z,98404.91
2023-02-02T06:59:19.418Z,98408.38
2023-02-02T07:04:21.168Z,98400.63
2023-02-02T07:09:22.915Z,98402.34
2023-02-02T07:14:24.616Z,98414.44
2023-02-02T07:19:26.360Z,98407.44
2023-02-02T07:24:28.075Z,98415.13
2023-02-02T07:29:29.910Z,98410.00
2023-02-02T07:34:31.681Z,98425.44
2023-02-02T07:39:33.421Z,98424.59
2023-02-02T07:44:35.126Z,98429.00
2023-02-02T07:49:36.865Z,98424.59
2023-02-02T07:54:38.575Z,98423.66
2023-02-02T07:59:40.264Z,98419.97
2023-02-02T08:04:42.016Z,98424.97
2023-02-02T08:09:46.490Z,98427.56
2023-02-02T08:14:48.235Z,98420.72
2023-02-02T08:19:50.165Z,98419.97
2023-02-02T08:24:51.925Z,98421.53
2023-02-02T08:29:53.688Z,98413.28
2023-02-02T08:34:55.426Z,98421.44
2023-02-02T08:39:57.173Z,98423.19
2023-02-02T08:46:02.396Z,98425.03
2023-02-02T08:50:20.651Z,98419.00
2023-02-02T08:55:22.538Z,98431.94
2023-02-02T09:00:24.401Z,98428.78
2023-02-02T09:05:26.447Z,98428.75
2023-02-02T09:10:28.440Z,98421.00
2023-02-02T09:15:30.415Z,98424.44
2023-02-02T09:20:32.132Z,98422.78
2023-02-02T09:25:33.890Z,98424.53
2023-02-02T09:30:35.685Z,98411.66
2023-02-02T09:35:37.463Z,98417.81
2023-02-02T09:40:40.054Z,98415.94
2023-02-02T09:45:46.631Z,98417.56
2023-02-02T09:51:05.172Z,98417.47
2023-02-02T09:56:08.391Z,98415.78
2023-02-02T10:01:31.570Z,98412.97
2023-02-02T10:06:43.805Z,98407.22
2023-02-02T10:12:13.513Z,98392.66
2023-02-02T10:17:21.230Z,98395.19
2023-02-02T10:22:24.790Z,98396.88
2023-02-02T10:27:39.607Z,98399.44
2023-02-02T10:33:10.473Z,98397.84
2023-02-02T10:38:32.341Z,98401.13
2023-02-02T10:44:01.294Z,98399.78
2023-02-02T10:49:11.753Z,98394.84
2023-02-02T10:54:27.011Z,98381.03
2023-02-02T10:59:33.399Z,98386.28
2023-02-02T11:04:35.186Z,98387.16
2023-02-02T11:09:39.774Z,98391.44
2023-02-02T11:14:46.262Z,98382.56
2023-02-02T11:19:48.233Z,98386.16
2023-02-02T11:24:49.987Z,98389.41
2023-02-02T11:29:53.107Z,98385.94
2023-02-02T11:35:13.624Z,98394.53
2023-02-02T11:40:34.149Z,98399.94
2023-02-02T11:45:37.656Z,98401.66
2023-02-02T11:50:39.443Z,98409.34
2023-02-02T11:55:41.216Z,98402.50
2023-02-02T12:00:49.666Z,98403.41
2023-02-02T12:05:51.543Z,98405.19
2023-02-02T12:11:03.134Z,98401.81
2023-02-02T12:16:35.796Z,98411.47
2023-02-02T12:21:53.878Z,98405.47
2023-02-02T12:27:37.676Z,98416.59
2023-02-02T12:32:48.391Z,98421.78
2023-02-02T12:38:27.241Z,98417.56
2023-02-02T12:43:42.689Z,98412.16
2023-02-02T12:49:21.603Z,98415.63
2023-02-02T12:54:56.004Z,98416.47
2023-02-02T13:00:20.154Z,98414.75
2023-02-02T13:05:45.290Z,98417.34
2023-02-02T13:10:49.408Z,98426.78
2023-02-02T13:16:08.824Z,98427.00
2023-02-02T13:21:15.445Z,98426.97
2023-02-02T13:26:23.561Z,98423.63
2023-02-02T13:31:39.090Z,98424.50
2023-02-02T13:36:41.657Z,98429.53
2023-02-02T13:41:43.575Z,98434.66
2023-02-02T13:47:00.457Z,98430.44
2023-02-02T13:52:14.194Z,98427.19
2023-02-02T13:57:22.056Z,98435.81
2023-02-02T14:02:40.799Z,98445.31
2023-02-02T14:07:45.417Z,98443.47
2023-02-02T14:12:47.307Z,98441.78
2023-02-02T14:17:50.611Z,98448.75
2023-02-02T14:22:52.500Z,98447.03
2023-02-02T14:28:04.730Z,98453.88
2023-02-02T14:33:21.000Z,98464.19
2023-02-02T14:38:27.513Z,98459.94
2023-02-02T14:43:45.424Z,98468.63
2023-02-02T14:48:53.084Z,98474.72
2023-02-02T14:54:02.279Z,98474.69
2023-02-02T14:59:04.053Z,98484.22
2023-02-02T15:04:20.827Z,98483.38
2023-02-02T15:09:22.598Z,98485.13
2023-02-02T15:14:44.599Z,98481.69
2023-02-02T15:19:48.593Z,98475.63
2023-02-02T15:24:50.424Z,98482.50
2023-02-02T15:29:56.911Z,98485.16
2023-02-02T15:35:00.353Z,98498.03
2023-02-02T15:40:02.296Z,98494.53
2023-02-02T15:45:06.104Z,98497.19
2023-02-02T15:50:18.026Z,98497.13
2023-02-02T15:55:25.648Z,98500.50
2023-02-02T16:00:30.764Z,98497.09
2023-02-02T16:05:32.754Z,98506.59
2023-02-02T16:10:34.790Z,98506.56
2023-02-02T16:15:36.666Z,98510.00
2023-02-02T16:20:38.606Z,98510.84
2023-02-02T16:25:47.802Z,98510.88
2023-02-02T16:30:49.923Z,98504.00
2023-02-02T16:35:51.785Z,98514.34
2023-02-02T16:41:04.153Z,98523.88
2023-02-02T16:46:15.628Z,98523.91
2023-02-02T16:51:17.957Z,98538.59
2023-02-02T16:56:30.130Z,98535.19
2023-02-02T17:01:37.317Z,98535.13
2023-02-02T17:06:51.928Z,98538.53
2023-02-02T17:12:05.860Z,98542.03
2023-02-02T17:17:08.977Z,98561.03
2023-02-02T17:22:10.898Z,98562.78
2023-02-02T17:27:34.248Z,98558.47
2023-02-02T17:32:36.209Z,98564.50
2023-02-02T17:37:38.130Z,98565.44
2023-02-02T17:42:40.022Z,98561.13
2023-02-02T17:47:41.854Z,98561.94
2023-02-02T17:52:43.727Z,98567.13
2023-02-02T17:57:47.265Z,98568.94
2023-02-02T18:02:49.852Z,98568.84
2023-02-02T18:08:00.666Z,98578.34
2023-02-02T18:13:39.613Z,98581.72
2023-02-02T18:18:41.435Z,98576.63
2023-02-02T18:23:43.481Z,98581.81
2023-02-02T18:28:46.105Z,98584.41
2023-02-02T18:33:47.946Z,98580.94
2023-02-02T18:38:50.205Z,98583.50
2023-02-02T18:43:54.597Z,98574.00
2023-02-02T18:48:56.800Z,98576.63
2023-02-02T18:53:58.809Z,98579.16
2023-02-02T18:59:00.759Z,98589.56
2023-02-02T19:04:02.851Z,98588.72
2023-02-02T19:09:05.403Z,98588.72
2023-02-02T19:14:18.200Z,98585.31
2023-02-02T19:19:30.001Z,98591.34
2023-02-02T19:24:37.508Z,98580.97
2023-02-02T19:29:39.337Z,98587.03
2023-02-02T19:34:42.337Z,98592.16
2023-02-02T19:39:44.220Z,98581.88
2023-02-02T19:44:46.110Z,98588.81
2023-02-02T19:49:47.978Z,98593.94
2023-02-02T19:54:50.075Z,98588.81
2023-02-02T19:59:52.614Z,98598.28
2023-02-02T20:05:06.529Z,98595.66
2023-02-02T20:10:22.936Z,98599.13
2023-02-02T20:15:31.662Z,98600.06
2023-02-02T20:20:40.221Z,98594.88
2023-02-02T20:25:42.089Z,98600.91
2023-02-02T20:30:44.009Z,98599.16
2023-02-02T20:35:45.927Z,98598.31
2023-02-02T20:40:47.868Z,98600.88
2023-02-02T20:45:50.216Z,98608.66
2023-02-02T20:50:52.139Z,98619.94
2023-02-02T20:55:54.033Z,98614.66
2023-02-02T21:00:56.081Z,98608.59
2023-02-02T21:05:58.182Z,98612.13
2023-02-02T21:11:00.121Z,98616.41
2023-02-02T21:16:02.067Z,98617.25
2023-02-02T21:21:04.196Z,98615.50
2023-02-02T21:26:06.136Z,98613.81
2023-02-02T21:31:08.825Z,98617.28
2023-02-02T21:36:20.271Z,98611.25
2023-02-02T21:41:22.119Z,98618.13
2023-02-02T21:46:29.177Z,98612.09
2023-02-02T21:51:35.120Z,98619.88
2023-02-02T21:56:38.550Z,98618.97
2023-02-02T22:01:40.483Z,98625.84
2023-02-02T22:06:52.163Z,98637.06
2023-02-02T22:12:01.265Z,98624.97
2023-02-02T22:17:07.532Z,98629.31
2023-02-02T22:22:09.283Z,98635.34
2023-02-02T22:27:37.143Z,98635.38
2023-02-02T22:32:39.063Z,98633.63
2023-02-02T22:37:41.011Z,98625.00
2023-02-02T22:42:43.496Z,98626.72
2023-02-02T22:47:45.430Z,98621.53
2023-02-02T22:52:47.463Z,98633.66
2023-02-02T22:57:49.585Z,98626.72
2023-02-02T23:02:51.879Z,98623.22
2023-02-02T23:07:53.814Z,98618.09
2023-02-02T23:12:56.085Z,98623.31
2023-02-02T23:17:58.031Z,98612.94
2023-02-02T23:22:59.920Z,98614.72
2023-02-02T23:28:01.874Z,98619.84
2023-02-02T23:33:03.959Z,98612.09
2023-02-02T23:38:05.825Z,98613.88
2023-02-02T23:43:07.707Z,98619.94
2023-02-02T23:48:09.634Z,98619.91
2023-02-02T23:53:11.439Z,98616.50
2023-02-02T23:58:13.309Z,98612.19
